createdAt,value
2022-11-05T00:02:11.539Z,99342.46
2022-11-05T00:04:59.434Z,99347.98
2022-11-05T00:08:09.344Z,99345.40
2022-11-05T00:10:39.839Z,99349.02
2022-11-05T00:13:29.699Z,99356.95
2022-11-05T00:16:17.533Z,99359.69
2022-11-05T00:19:06.896Z,99362.07
2022-11-05T00:21:58.183Z,99364.80
2022-11-05T00:24:46.144Z,99365.79
2022-11-05T00:27:15.595Z,99367.26
2022-11-05T00:29:45.038Z,99369.45
2022-11-05T00:32:14.518Z,99370.90
2022-11-05T00:34:46.732Z,99377.60
2022-11-05T00:37:16.651Z,99380.74
2022-11-05T00:39:46.451Z,99377.48
2022-11-05T00:42:35.205Z,99377.74
2022-11-05T00:45:10.029Z,99385.02
2022-11-05T00:47:58.988Z,99392.89
2022-11-05T00:50:29.089Z,99401.88
2022-11-05T00:53:00.795Z,99408.91
2022-11-05T00:55:41.183Z,99413.41
2022-11-05T00:58:15.276Z,99411.84
2022-11-05T01:00:51.081Z,99406.66
2022-11-05T01:03:25.315Z,99403.16
2022-11-05T01:05:59.426Z,99402.41
2022-11-05T01:08:29.111Z,99399.63
2022-11-05T01:10:59.834Z,99406.45
2022-11-05T01:13:31.082Z,99404.98
2022-11-05T01:16:10.408Z,99408.52
2022-11-05T01:18:40.241Z,99411.13
2022-11-05T01:21:15.999Z,99416.23
2022-11-05T01:23:45.546Z,99420.80
2022-11-05T01:26:15.055Z,99420.71
2022-11-05T01:28:44.430Z,99428.34
2022-11-05T01:31:13.949Z,99432.67
2022-11-05T01:33:43.369Z,99436.02
2022-11-05T01:36:13.011Z,99439.84
2022-11-05T01:38:43.227Z,99440.21
2022-11-05T01:41:12.655Z,99443.96
2022-11-05T01:43:55.225Z,99445.52
2022-11-05T01:46:40.636Z,99448.51
2022-11-05T01:49:26.635Z,99446.96
2022-11-05T01:51:59.077Z,99445.13
2022-11-05T01:54:32.228Z,99448.73
2022-11-05T01:57:06.971Z,99454.02
2022-11-05T01:59:44.666Z,99453.28
2022-11-05T02:02:15.035Z,99446.64
2022-11-05T02:04:54.109Z,99448.00
2022-11-05T02:07:27.322Z,99453.55
2022-11-05T02:10:07.273Z,99458.30
2022-11-05T02:12:41.082Z,99458.82
2022-11-05T02:15:13.952Z,99462.30
2022-11-05T02:18:51.282Z,99463.90
2022-11-05T02:21:47.401Z,99467.30
2022-11-05T02:24:33.142Z,99466.02
2022-11-05T02:27:07.286Z,99469.35
2022-11-05T02:30:06.825Z,99472.23
2022-11-05T02:32:57.554Z,99477.57
2022-11-05T02:35:50.250Z,99480.17
2022-11-05T02:38:57.430Z,99485.11
2022-11-05T02:42:11.987Z,99489.30
2022-11-05T02:45:10.370Z,99482.24
2022-11-05T02:47:51.566Z,99479.33
2022-11-05T02:51:00.402Z,99485.20
2022-11-05T02:53:34.000Z,99490.83
2022-11-05T02:56:21.230Z,99501.83
2022-11-05T02:58:50.889Z,99511.80
2022-11-05T03:01:20.362Z,99514.93
2022-11-05T03:04:05.058Z,99519.92
2022-11-05T03:07:00.410Z,99532.41
2022-11-05T03:10:03.763Z,99546.80
2022-11-05T03:13:04.260Z,99556.91
2022-11-05T03:15:53.361Z,99575.34
2022-11-05T03:18:48.887Z,99581.67
2022-11-05T03:21:31.703Z,99583.27
2022-11-05T03:24:14.057Z,99571.87
2022-11-05T03:27:00.940Z,99565.80
2022-11-05T03:29:42.952Z,99573.16
2022-11-05T03:32:15.120Z,99580.12
2022-11-05T03:34:57.083Z,99586.61
2022-11-05T03:37:32.258Z,99591.61
2022-11-05T03:40:07.244Z,99595.04
2022-11-05T03:42:41.195Z,99603.00
2022-11-05T03:45:28.357Z,99610.54
2022-11-05T03:48:01.995Z,99610.31
2022-11-05T03:51:02.946Z,99612.75
2022-11-05T03:53:40.976Z,99620.95
2022-11-05T03:56:28.278Z,99627.67
2022-11-05T03:59:00.051Z,99629.09
2022-11-05T04:01:31.045Z,99635.29
2022-11-05T04:04:00.747Z,99646.65
2022-11-05T04:06:48.401Z,99652.71
2022-11-05T04:09:36.561Z,99648.92
2022-11-05T04:12:25.178Z,99649.23
2022-11-05T04:14:54.992Z,99646.94
2022-11-05T04:17:24.607Z,99650.09
2022-11-05T04:20:12.260Z,99653.44
2022-11-05T04:23:00.178Z,99667.27
2022-11-05T04:25:29.581Z,99672.54
2022-11-05T04:28:00.957Z,99681.05
2022-11-05T04:30:31.852Z,99696.22
2022-11-05T04:33:07.853Z,99704.52
2022-11-05T04:35:48.708Z,99709.24
2022-11-05T04:38:20.746Z,99720.23
2022-11-05T04:40:50.251Z,99721.70
2022-11-05T04:43:20.135Z,99722.27
2022-11-05T04:45:50.020Z,99719.83
2022-11-05T04:48:19.493Z,99715.70
2022-11-05T04:50:48.854Z,99725.69
2022-11-05T04:53:18.001Z,99726.80
2022-11-05T04:55:48.518Z,99731.27
2022-11-05T04:58:17.995Z,99729.84
2022-11-05T05:00:49.977Z,99733.93
2022-11-05T05:03:19.989Z,99736.86
2022-11-05T05:05:52.898Z,99737.77
2022-11-05T05:08:23.601Z,99737.67
2022-11-05T05:10:54.369Z,99740.16
2022-11-05T05:13:26.879Z,99739.48
2022-11-05T05:16:07.922Z,99741.73
2022-11-05T05:18:46.051Z,99740.83
2022-11-05T05:21:39.953Z,99749.73
2022-11-05T05:24:21.762Z,99757.41
2022-11-05T05:26:52.451Z,99761.83
2022-11-05T05:29:22.240Z,99761.97
2022-11-05T05:31:51.657Z,99763.79
2022-11-05T05:34:21.255Z,99770.39
2022-11-05T05:36:51.155Z,99768.95
2022-11-05T05:39:29.804Z,99774.09
2022-11-05T05:42:03.866Z,99782.03
2022-11-05T05:44:35.140Z,99782.31
2022-11-05T05:47:06.301Z,99784.61
2022-11-05T05:49:44.698Z,99783.26
2022-11-05T05:52:17.912Z,99787.33
2022-11-05T05:54:48.116Z,99789.17
2022-11-05T05:57:21.801Z,99788.65
2022-11-05T05:59:52.338Z,99791.95
2022-11-05T06:02:32.167Z,99796.77
2022-11-05T06:05:05.163Z,99801.21
2022-11-05T06:07:40.838Z,99801.48
2022-11-05T06:10:10.825Z,99806.38
2022-11-05T06:12:40.773Z,99807.78
2022-11-05T06:15:12.622Z,99818.67
2022-11-05T06:17:46.172Z,99826.48
2022-11-05T06:20:15.362Z,99829.79
2022-11-05T06:22:59.951Z,99833.06
2022-11-05T06:25:34.058Z,99834.34
2022-11-05T06:28:09.793Z,99840.61
2022-11-05T06:30:40.634Z,99852.14
2022-11-05T06:33:11.030Z,99861.15
2022-11-05T06:35:51.309Z,99866.92
2022-11-05T06:38:34.040Z,99869.55
2022-11-05T06:41:10.715Z,99879.08
2022-11-05T06:43:41.023Z,99880.41
2022-11-05T06:46:11.593Z,99880.71
2022-11-05T06:48:41.035Z,99887.77
2022-11-05T06:51:10.397Z,99898.23
2022-11-05T06:53:39.854Z,99904.59
2022-11-05T06:56:10.072Z,99911.08
2022-11-05T06:58:42.106Z,99920.71
2022-11-05T07:01:13.744Z,99922.31
2022-11-05T07:03:45.376Z,99924.40
2022-11-05T07:06:14.834Z,99933.11
2022-11-05T07:08:44.244Z,99932.58
2022-11-05T07:11:13.345Z,99936.65
2022-11-05T07:13:42.403Z,99947.66
2022-11-05T07:16:14.303Z,99952.83
2022-11-05T07:18:43.564Z,99951.64
2022-11-05T07:21:13.415Z,99948.06
2022-11-05T07:23:42.861Z,99948.69
2022-11-05T07:26:12.623Z,99945.09
2022-11-05T07:28:42.167Z,99943.64
2022-11-05T07:31:11.427Z,99947.40
2022-11-05T07:33:40.430Z,99947.67
2022-11-05T07:36:10.450Z,99946.05
2022-11-05T07:38:39.546Z,99946.38
2022-11-05T07:41:08.562Z,99954.17
2022-11-05T07:43:42.879Z,99961.08
2022-11-05T07:46:13.894Z,99967.85
2022-11-05T07:48:45.759Z,99967.77
2022-11-05T07:51:19.158Z,99976.42
2022-11-05T07:53:49.055Z,99991.83
2022-11-05T07:56:18.796Z,99995.14
2022-11-05T07:58:53.305Z,100001.30
2022-11-05T08:01:26.510Z,100005.93
2022-11-05T08:03:55.886Z,100006.40
2022-11-05T08:06:25.101Z,100001.88
2022-11-05T08:08:54.102Z,100006.00
2022-11-05T08:11:23.171Z,100007.99
2022-11-05T08:13:52.168Z,100016.51
2022-11-05T08:16:21.210Z,100019.98
2022-11-05T08:18:50.257Z,100022.93
2022-11-05T08:21:19.487Z,100025.94
2022-11-05T08:23:48.476Z,100027.54
2022-11-05T08:26:17.434Z,100036.26
2022-11-05T08:28:46.436Z,100038.77
2022-11-05T08:31:17.864Z,100043.25
2022-11-05T08:33:46.956Z,100049.20
2022-11-05T08:36:15.924Z,100050.54
2022-11-05T08:38:44.873Z,100053.88
2022-11-05T08:41:14.341Z,100057.70
2022-11-05T08:43:43.913Z,100061.84
2022-11-05T08:46:12.988Z,100063.23
2022-11-05T08:48:42.121Z,100064.45
2022-11-05T08:51:13.547Z,100072.37
2022-11-05T08:53:46.347Z,100077.21
2022-11-05T08:56:16.485Z,100081.02
2022-11-05T08:58:45.736Z,100083.67
2022-11-05T09:01:17.806Z,100084.38
2022-11-05T09:04:04.697Z,100092.10
2022-11-05T09:06:34.295Z,100097.34
2022-11-05T09:09:03.507Z,100104.10
2022-11-05T09:11:57.075Z,100107.31
2022-11-05T09:14:22.159Z,100112.55
2022-11-05T09:16:51.148Z,100114.06
2022-11-05T09:19:20.046Z,100109.48
2022-11-05T09:21:49.144Z,100114.68
2022-11-05T09:24:18.347Z,100119.48
2022-11-05T09:26:47.380Z,100126.45
2022-11-05T09:29:16.571Z,100136.44
2022-11-05T09:31:45.621Z,100148.08
2022-11-05T09:34:14.632Z,100149.59
2022-11-05T09:36:44.417Z,100161.48
2022-11-05T09:39:13.609Z,100163.15
2022-11-05T09:41:44.803Z,100161.28
2022-11-05T09:44:26.130Z,100159.81
2022-11-05T09:47:02.959Z,100164.13
2022-11-05T09:49:42.376Z,100167.84
2022-11-05T09:52:19.785Z,100167.39
2022-11-05T09:54:50.568Z,100173.23
2022-11-05T09:57:38.434Z,100173.44
2022-11-05T10:00:16.733Z,100178.10
2022-11-05T10:03:00.135Z,100186.67
2022-11-05T10:05:35.928Z,100190.15
2022-11-05T10:08:41.991Z,100192.73
2022-11-05T10:11:43.668Z,100197.78
2022-11-05T10:14:51.564Z,100198.38
2022-11-05T10:18:01.801Z,100195.94
2022-11-05T10:20:57.172Z,100194.20
2022-11-05T10:23:29.387Z,100199.92
2022-11-05T10:26:17.467Z,100205.65
2022-11-05T10:28:51.762Z,100209.93
2022-11-05T10:31:30.330Z,100217.58
2022-11-05T10:34:12.023Z,100217.48
2022-11-05T10:37:01.537Z,100221.95
2022-11-05T10:39:37.559Z,100226.71
2022-11-05T10:42:51.666Z,100228.86
2022-11-05T10:45:41.245Z,100226.61
2022-11-05T10:48:44.104Z,100226.60
2022-11-05T10:51:18.662Z,100224.67
2022-11-05T10:54:16.516Z,100223.59
2022-11-05T10:56:48.643Z,100227.77
2022-11-05T10:59:36.882Z,100226.23
2022-11-05T11:02:52.001Z,100231.11
2022-11-05T11:05:47.655Z,100234.73
2022-11-05T11:09:46.252Z,100237.70
2022-11-05T11:12:26.146Z,100242.30
2022-11-05T11:15:36.073Z,100237.90
2022-11-05T11:18:41.844Z,100238.85
2022-11-05T11:21:39.319Z,100245.06
2022-11-05T11:24:33.355Z,100245.95
2022-11-05T11:27:10.319Z,100249.92
2022-11-05T11:29:55.520Z,100253.52
2022-11-05T11:35:46.901Z,100264.10
2022-11-05T11:38:37.173Z,100262.55
2022-11-05T11:41:36.229Z,100261.70
2022-11-05T11:44:15.560Z,100266.73
2022-11-05T11:46:51.218Z,100272.98
2022-11-05T11:50:03.263Z,100273.83
2022-11-05T11:52:36.111Z,100272.06
2022-11-05T11:55:23.207Z,100272.83
2022-11-05T11:58:11.596Z,100273.43
2022-11-05T12:00:50.300Z,100273.36
2022-11-05T12:03:35.928Z,100272.39
2022-11-05T12:06:19.818Z,100268.64
2022-11-05T12:09:25.176Z,100270.21
2022-11-05T12:12:21.412Z,100275.34
2022-11-05T12:14:50.428Z,100281.34
2022-11-05T12:17:38.371Z,100290.03
2022-11-05T12:20:29.015Z,100298.62
2022-11-05T12:23:20.607Z,100299.75
2022-11-05T12:26:46.875Z,100304.64
2022-11-05T12:29:53.512Z,100306.85
2022-11-05T12:32:22.731Z,100314.21
2022-11-05T12:35:16.657Z,100318.60
2022-11-05T12:38:07.688Z,100324.16
2022-11-05T12:41:02.543Z,100324.99
2022-11-05T12:44:20.207Z,100324.02
2022-11-05T12:47:40.109Z,100324.32
2022-11-05T12:50:44.348Z,100318.20
2022-11-05T12:53:54.892Z,100320.19
2022-11-05T12:56:45.712Z,100324.02
2022-11-05T12:59:44.135Z,100334.61
2022-11-05T13:02:25.191Z,100342.24
2022-11-05T13:05:15.661Z,100343.73
2022-11-05T13:08:03.153Z,100347.80
2022-11-05T13:10:41.497Z,100348.08
2022-11-05T13:13:47.881Z,100348.21
2022-11-05T13:16:38.818Z,100352.89
2022-11-05T13:19:24.760Z,100350.44
2022-11-05T13:22:09.180Z,100351.02
2022-11-05T13:24:47.562Z,100359.36
2022-11-05T13:27:55.450Z,100358.20
2022-11-05T13:30:39.801Z,100354.30
2022-11-05T13:33:25.216Z,100357.98
2022-11-05T13:36:38.665Z,100366.64
2022-11-05T13:39:47.297Z,100377.38
2022-11-05T13:42:31.193Z,100382.45
2022-11-05T13:45:41.623Z,100381.44
2022-11-05T13:48:19.830Z,100381.90
2022-11-05T13:51:21.265Z,100384.53
2022-11-05T13:54:34.097Z,100385.30
2022-11-05T13:57:35.255Z,100396.13
2022-11-05T14:00:42.572Z,100399.98
2022-11-05T14:03:21.544Z,100403.88
2022-11-05T14:06:07.090Z,100406.52
2022-11-05T14:08:48.131Z,100411.29
2022-11-05T14:11:27.448Z,100416.27
2022-11-05T14:14:07.497Z,100417.95
2022-11-05T14:17:17.024Z,100421.90
2022-11-05T14:20:07.119Z,100427.20
2022-11-05T14:22:40.713Z,100429.27
2022-11-05T14:25:30.265Z,100433.02
2022-11-05T14:27:59.380Z,100434.46
2022-11-05T14:30:47.934Z,100431.26
2022-11-05T14:33:28.027Z,100436.27
2022-11-05T14:36:45.423Z,100440.66
2022-11-05T14:39:22.300Z,100443.77
2022-11-05T14:42:22.227Z,100444.25
2022-11-05T14:45:16.308Z,100449.29
2022-11-05T14:48:05.994Z,100455.16
2022-11-05T14:50:40.581Z,100463.10
2022-11-05T14:53:49.328Z,100463.63
2022-11-05T14:56:19.533Z,100461.13
2022-11-05T14:58:48.907Z,100462.92
2022-11-05T15:01:38.169Z,100468.63
2022-11-05T15:04:42.943Z,100473.42
2022-11-05T15:07:35.653Z,100479.02
2022-11-05T15:10:19.323Z,100478.13
2022-11-05T15:13:08.857Z,100478.38
2022-11-05T15:15:49.578Z,100485.91
2022-11-05T15:18:37.162Z,100484.41
2022-11-05T15:21:19.601Z,100485.55
2022-11-05T15:24:05.761Z,100490.77
2022-11-05T15:27:18.780Z,100499.76
2022-11-05T15:29:50.852Z,100502.34
2022-11-05T15:32:34.595Z,100502.63
2022-11-05T15:35:32.752Z,100504.48
2022-11-05T15:38:11.133Z,100504.85
2022-11-05T15:40:46.757Z,100511.75
2022-11-05T15:43:22.721Z,100516.32
2022-11-05T15:46:36.186Z,100519.69
2022-11-05T15:49:10.799Z,100522.14
2022-11-05T15:51:49.970Z,100525.83
2022-11-05T15:54:30.172Z,100525.88
2022-11-05T15:57:02.504Z,100529.42
2022-11-05T15:59:43.104Z,100533.65
2022-11-05T16:02:37.000Z,100539.88
2022-11-05T16:05:32.574Z,100532.08
2022-11-05T16:08:05.366Z,100536.13
2022-11-05T16:10:57.134Z,100539.11
2022-11-05T16:14:13.325Z,100537.67
2022-11-05T16:17:42.623Z,100535.23
2022-11-05T16:20:39.894Z,100538.92
2022-11-05T16:23:54.167Z,100542.59
2022-11-05T16:27:01.730Z,100549.51
2022-11-05T16:30:03.529Z,100553.55
2022-11-05T16:32:41.746Z,100560.05
2022-11-05T16:35:24.089Z,100562.01
2022-11-05T16:38:05.044Z,100559.78
2022-11-05T16:40:42.977Z,100559.42
2022-11-05T16:43:30.078Z,100565.73
2022-11-05T16:46:18.855Z,100568.93
2022-11-05T16:49:13.702Z,100571.00
2022-11-05T16:52:04.002Z,100571.91
2022-11-05T16:54:45.086Z,100577.29
2022-11-05T16:57:32.701Z,100579.58
2022-11-05T17:00:46.471Z,100582.81
2022-11-05T17:03:27.873Z,100587.49
2022-11-05T17:06:16.192Z,100594.13
2022-11-05T17:08:55.869Z,100596.52
2022-11-05T17:11:38.132Z,100598.73
2022-11-05T17:14:22.556Z,100600.45
2022-11-05T17:17:38.672Z,100602.02
2022-11-05T17:20:32.410Z,100603.80
2022-11-05T17:23:27.622Z,100603.52
2022-11-05T17:26:15.405Z,100600.09
2022-11-05T17:28:53.939Z,100604.45
2022-11-05T17:31:49.590Z,100610.11
2022-11-05T17:34:45.046Z,100611.14
2022-11-05T17:37:23.038Z,100613.33
2022-11-05T17:39:58.350Z,100617.30
2022-11-05T17:42:27.454Z,100616.44
2022-11-05T17:45:07.146Z,100618.69
2022-11-05T17:47:55.494Z,100623.94
2022-11-05T17:50:36.656Z,100630.20
2022-11-05T17:53:20.620Z,100629.91
2022-11-05T17:56:05.082Z,100632.09
2022-11-05T17:58:46.121Z,100633.34
2022-11-05T18:01:42.301Z,100638.66
2022-11-05T18:04:18.987Z,100639.97
2022-11-05T18:07:17.195Z,100641.60
2022-11-05T18:10:50.335Z,100641.08
2022-11-05T18:13:10.994Z,100642.71
2022-11-05T18:15:58.540Z,100641.21
2022-11-05T18:18:45.637Z,100638.63
2022-11-05T18:21:33.306Z,100640.89
2022-11-05T18:24:26.822Z,100640.80
2022-11-05T18:27:11.392Z,100645.98
2022-11-05T18:29:54.531Z,100648.42
2022-11-05T18:32:32.950Z,100649.70
2022-11-05T18:35:09.560Z,100649.52
2022-11-05T18:41:24.940Z,100656.38
2022-11-05T18:44:05.276Z,100658.88
2022-11-05T18:47:02.147Z,100661.67
2022-11-05T18:49:42.896Z,100668.33
2022-11-05T18:52:20.716Z,100668.50
2022-11-05T18:55:00.031Z,100669.58
2022-11-05T18:57:36.288Z,100663.41
2022-11-05T19:00:21.271Z,100666.56
2022-11-05T19:03:23.192Z,100670.02
2022-11-05T19:06:11.824Z,100676.48
2022-11-05T19:08:57.046Z,100678.48
2022-11-05T19:11:49.082Z,100681.25
2022-11-05T19:14:42.550Z,100676.80
2022-11-05T19:17:22.040Z,100687.13
2022-11-05T19:20:08.580Z,100689.60
2022-11-05T19:22:51.305Z,100691.73
2022-11-05T19:25:23.781Z,100695.23
2022-11-05T19:28:00.498Z,100701.36
2022-11-05T19:30:35.367Z,100701.91
2022-11-05T19:33:44.015Z,100709.14
2022-11-05T19:36:38.666Z,100707.09
2022-11-05T19:39:21.912Z,100709.81
2022-11-05T19:41:54.847Z,100708.14
2022-11-05T19:44:48.061Z,100719.98
2022-11-05T19:47:38.621Z,100720.47
2022-11-05T19:50:20.588Z,100724.05
2022-11-05T19:53:41.227Z,100726.05
2022-11-05T19:56:36.843Z,100728.45
2022-11-05T20:00:35.900Z,100728.70
2022-11-05T20:03:20.796Z,100728.55
2022-11-05T20:08:02.004Z,100733.73
2022-11-05T20:10:47.265Z,100738.24
2022-11-05T20:13:33.977Z,100742.45
2022-11-05T20:16:10.161Z,100743.35
2022-11-05T20:18:40.564Z,100745.63
2022-11-05T20:21:17.167Z,100750.17
2022-11-05T20:23:57.831Z,100754.94
2022-11-05T20:26:47.379Z,100754.16
2022-11-05T20:29:38.646Z,100750.14
2022-11-05T20:32:09.360Z,100747.13
2022-11-05T20:34:40.247Z,100748.29
2022-11-05T20:37:31.219Z,100750.73
2022-11-05T20:40:18.641Z,100748.46
2022-11-05T20:42:58.460Z,100749.80
2022-11-05T20:45:42.909Z,100757.91
2022-11-05T20:48:32.011Z,100756.46
2022-11-05T20:51:39.901Z,100760.45
2022-11-05T20:54:45.659Z,100763.00
2022-11-05T20:57:49.271Z,100764.77
2022-11-05T21:01:00.219Z,100767.27
2022-11-05T21:03:51.637Z,100769.98
2022-11-05T21:06:45.744Z,100765.55
2022-11-05T21:09:52.278Z,100766.52
2022-11-05T21:12:42.185Z,100766.61
2022-11-05T21:15:29.302Z,100769.33
2022-11-05T21:18:33.318Z,100771.83
2022-11-05T21:21:28.699Z,100771.61
2022-11-05T21:24:13.968Z,100776.17
2022-11-05T21:26:50.133Z,100777.58
2022-11-05T21:29:46.209Z,100781.65
2022-11-05T21:32:38.634Z,100782.26
2022-11-05T21:35:20.434Z,100786.46
2022-11-05T21:38:38.604Z,100787.10
2022-11-05T21:41:35.938Z,100786.99
2022-11-05T21:44:24.948Z,100784.67
2022-11-05T21:47:35.334Z,100784.59
2022-11-05T21:50:17.126Z,100789.69
2022-11-05T21:53:22.035Z,100791.80
2022-11-05T21:56:41.179Z,100790.31
2022-11-05T21:59:43.971Z,100790.05
2022-11-05T22:02:34.079Z,100789.30
2022-11-05T22:05:27.156Z,100792.14
2022-11-05T22:09:05.013Z,100793.45
2022-11-05T22:11:21.276Z,100792.92
2022-11-05T22:14:07.370Z,100794.58
2022-11-05T22:16:51.099Z,100798.98
2022-11-05T22:23:08.603Z,100809.05
2022-11-05T22:25:43.985Z,100811.27
2022-11-05T22:28:24.568Z,100812.73
2022-11-05T22:31:01.970Z,100810.55
2022-11-05T22:34:02.180Z,100813.04
2022-11-05T22:36:43.617Z,100816.58
2022-11-05T22:40:23.827Z,100817.00
2022-11-05T22:43:34.604Z,100815.18
2022-11-05T22:46:29.163Z,100812.48
2022-11-05T22:49:06.327Z,100808.88
2022-11-05T22:51:47.681Z,100802.53
2022-11-05T22:55:03.661Z,100808.39
2022-11-05T22:57:56.181Z,100810.66
2022-11-05T23:00:43.837Z,100807.73
2022-11-05T23:03:31.608Z,100812.05
2022-11-05T23:06:39.922Z,100815.55
2022-11-05T23:09:54.070Z,100813.52
2022-11-05T23:12:50.240Z,100816.31
2022-11-05T23:15:44.867Z,100817.36
2022-11-05T23:18:39.863Z,100817.23
2022-11-05T23:21:28.877Z,100814.02
2022-11-05T23:30:37.558Z,100823.99
2022-11-05T23:33:29.777Z,100818.66
2022-11-05T23:36:31.568Z,100817.64
2022-11-05T23:39:18.802Z,100827.84
2022-11-05T23:42:51.440Z,100823.00
2022-11-05T23:45:50.547Z,100824.33
2022-11-05T23:48:46.652Z,100824.55
2022-11-05T23:51:38.942Z,100825.24
2022-11-05T23:54:31.539Z,100825.27
2022-11-05T23:57:34.406Z,100827.72
